Terminal Aerodrome Forecast
Issued by NWS

Home | Current Version | Previous Version | Graphics & Text | Print | Product List | Glossary On
Versions: 1 2 3 4 5 6 7 8 9 10 11 12 13 14 15 16 17 18 19 20 21 22 23 24 25 26 27 28 29 30 31 32 33 34 35 36 37
000
FTUS43 KLOT 160852 AAB
TAFORD
TAF AMD
KORD 160852Z 1609/1712 10008KT P6SM VCSH OVC025
      TEMPO 1610/1612 5SM -SHRA BR OVC008
     FM161200 05006KT 5SM BR VCSH OVC010
      TEMPO 1612/1616 OVC007
     FM161600 04006KT P6SM BKN015
     FM162000 05007KT P6SM SCT025 BKN045
     FM170300 VRB03KT P6SM SCT250=

USA.gov is the U.S. government's official web portal to all federal, state and local government web resources and services.